sensor_id;sensor_type;location;lat;lon;timestamp;pressure;altitude;pressure_sealevel;temperature;humidity
16694;BME280;39538;52.196;9.892;2022-08-19T00:01:17;100275.84;;;20.97;92.15
16694;BME280;39538;52.196;9.892;2022-08-19T00:03:44;100268.22;;;21.00;91.04
16694;BME280;39538;52.196;9.892;2022-08-19T00:06:10;100256.78;;;20.98;90.24
16694;BME280;39538;52.196;9.892;2022-08-19T00:08:36;100249.03;;;20.95;90.32
16694;BME280;39538;52.196;9.892;2022-08-19T00:11:03;100252.09;;;20.92;90.30
16694;BME280;39538;52.196;9.892;2022-08-19T00:13:30;100244.94;;;20.84;90.52
16694;BME280;39538;52.196;9.892;2022-08-19T00:15:57;100252.19;;;20.84;90.43
16694;BME280;39538;52.196;9.892;2022-08-19T00:18:25;100254.03;;;20.83;90.05
16694;BME280;39538;52.196;9.892;2022-08-19T00:20:51;100250.88;;;20.80;90.31
16694;BME280;39538;52.196;9.892;2022-08-19T00:23:18;100250.56;;;20.75;90.08
16694;BME280;39538;52.196;9.892;2022-08-19T00:25:44;100242.16;;;20.70;89.88
16694;BME280;39538;52.196;9.892;2022-08-19T00:28:11;100244.56;;;20.65;90.32
16694;BME280;39538;52.196;9.892;2022-08-19T00:30:37;100248.63;;;20.60;90.54
16694;BME280;39538;52.196;9.892;2022-08-19T00:33:05;100249.53;;;20.53;90.66
16694;BME280;39538;52.196;9.892;2022-08-19T00:35:32;100234.72;;;20.49;90.83
16694;BME280;39538;52.196;9.892;2022-08-19T00:37:59;100234.72;;;20.49;90.70
16694;BME280;39538;52.196;9.892;2022-08-19T00:40:25;100235.09;;;20.46;90.25
16694;BME280;39538;52.196;9.892;2022-08-19T00:42:52;100234.41;;;20.43;90.10
16694;BME280;39538;52.196;9.892;2022-08-19T00:45:21;100237.84;;;20.37;90.08
16694;BME280;39538;52.196;9.892;2022-08-19T00:47:48;100234.50;;;20.35;89.69
16694;BME280;39538;52.196;9.892;2022-08-19T00:50:18;100229.97;;;20.28;89.92
16694;BME280;39538;52.196;9.892;2022-08-19T00:52:47;100240.13;;;20.26;89.77
16694;BME280;39538;52.196;9.892;2022-08-19T00:55:18;100237.09;;;20.20;90.20
16694;BME280;39538;52.196;9.892;2022-08-19T00:57:47;100242.47;;;20.20;90.76
16694;BME280;39538;52.196;9.892;2022-08-19T01:00:17;100233.41;;;20.21;90.47
16694;BME280;39538;52.196;9.892;2022-08-19T01:02:45;100231.72;;;20.20;90.52
16694;BME280;39538;52.196;9.892;2022-08-19T01:05:14;100230.72;;;20.21;90.49
16694;BME280;39538;52.196;9.892;2022-08-19T01:07:44;100241.19;;;20.16;90.75
16694;BME280;39538;52.196;9.892;2022-08-19T01:10:13;100240.84;;;20.11;90.90
16694;BME280;39538;52.196;9.892;2022-08-19T01:12:40;100251.84;;;20.10;90.63
16694;BME280;39538;52.196;9.892;2022-08-19T01:15:09;100243.75;;;20.10;90.62
16694;BME280;39538;52.196;9.892;2022-08-19T01:17:38;100234.47;;;20.12;90.54
16694;BME280;39538;52.196;9.892;2022-08-19T01:20:06;100226.38;;;20.12;90.63
16694;BME280;39538;52.196;9.892;2022-08-19T01:22:40;100222.00;;;20.11;90.74
16694;BME280;39538;52.196;9.892;2022-08-19T01:25:08;100224.69;;;20.11;90.42
16694;BME280;39538;52.196;9.892;2022-08-19T01:27:39;100214.94;;;20.10;90.18
16694;BME280;39538;52.196;9.892;2022-08-19T01:30:07;100222.19;;;20.10;89.94
16694;BME280;39538;52.196;9.892;2022-08-19T01:32:34;100220.03;;;20.05;89.66
16694;BME280;39538;52.196;9.892;2022-08-19T01:35:02;100218.53;;;20.03;89.03
16694;BME280;39538;52.196;9.892;2022-08-19T01:37:29;100220.56;;;20.00;89.31
16694;BME280;39538;52.196;9.892;2022-08-19T01:39:57;100213.16;;;19.94;89.29
16694;BME280;39538;52.196;9.892;2022-08-19T01:42:23;100208.81;;;19.93;88.95
16694;BME280;39538;52.196;9.892;2022-08-19T01:44:49;100203.75;;;19.90;89.08
16694;BME280;39538;52.196;9.892;2022-08-19T01:47:16;100193.34;;;19.87;89.07
16694;BME280;39538;52.196;9.892;2022-08-19T01:49:42;100194.53;;;19.85;89.01
16694;BME280;39538;52.196;9.892;2022-08-19T01:52:09;100197.41;;;19.83;88.94
16694;BME280;39538;52.196;9.892;2022-08-19T01:54:35;100200.16;;;19.75;89.62
16694;BME280;39538;52.196;9.892;2022-08-19T01:57:05;100199.66;;;19.71;89.85
16694;BME280;39538;52.196;9.892;2022-08-19T01:59:33;100200.47;;;19.72;89.45
16694;BME280;39538;52.196;9.892;2022-08-19T02:02:02;100205.22;;;19.70;90.18
16694;BME280;39538;52.196;9.892;2022-08-19T02:04:29;100203.53;;;19.69;90.33
16694;BME280;39538;52.196;9.892;2022-08-19T02:06:57;100214.81;;;19.72;90.21
16694;BME280;39538;52.196;9.892;2022-08-19T02:09:23;100205.03;;;19.71;90.21
16694;BME280;39538;52.196;9.892;2022-08-19T02:11:50;100204.72;;;19.74;89.81
16694;BME280;39538;52.196;9.892;2022-08-19T02:14:17;100209.44;;;19.72;89.86
16694;BME280;39538;52.196;9.892;2022-08-19T02:16:44;100199.66;;;19.71;89.71
16694;BME280;39538;52.196;9.892;2022-08-19T02:19:10;100198.97;;;19.69;89.62
16694;BME280;39538;52.196;9.892;2022-08-19T02:21:37;100193.59;;;19.69;89.53
16694;BME280;39538;52.196;9.892;2022-08-19T02:24:04;100188.03;;;19.71;89.46
16694;BME280;39538;52.196;9.892;2022-08-19T02:26:31;100184.69;;;19.69;89.85
16694;BME280;39538;52.196;9.892;2022-08-19T02:28:58;100188.22;;;19.69;90.10
16694;BME280;39538;52.196;9.892;2022-08-19T02:31:26;100189.25;;;19.68;90.35
16694;BME280;39538;52.196;9.892;2022-08-19T02:33:54;100189.91;;;19.70;90.17
16694;BME280;39538;52.196;9.892;2022-08-19T02:36:21;100194.47;;;19.70;90.02
16694;BME280;39538;52.196;9.892;2022-08-19T02:38:48;100193.44;;;19.71;90.44
16694;BME280;39538;52.196;9.892;2022-08-19T02:41:15;100191.94;;;19.68;90.58
16694;BME280;39538;52.196;9.892;2022-08-19T02:43:42;100195.47;;;19.69;90.67
16694;BME280;39538;52.196;9.892;2022-08-19T02:46:14;100208.09;;;19.68;90.69
16694;BME280;39538;52.196;9.892;2022-08-19T02:48:44;100207.94;;;19.70;90.58
16694;BME280;39538;52.196;9.892;2022-08-19T02:51:16;100207.06;;;19.69;90.30
16694;BME280;39538;52.196;9.892;2022-08-19T02:53:43;100207.72;;;19.71;90.08
16694;BME280;39538;52.196;9.892;2022-08-19T02:56:09;100208.75;;;19.70;90.06
16694;BME280;39538;52.196;9.892;2022-08-19T02:58:36;100212.44;;;19.69;89.75
16694;BME280;39538;52.196;9.892;2022-08-19T03:01:02;100215.31;;;19.68;89.99
16694;BME280;39538;52.196;9.892;2022-08-19T03:03:29;100209.06;;;19.67;90.07
16694;BME280;39538;52.196;9.892;2022-08-19T03:06:07;100214.31;;;19.69;90.05
16694;BME280;39538;52.196;9.892;2022-08-19T03:08:34;100212.78;;;19.66;89.78
16694;BME280;39538;52.196;9.892;2022-08-19T03:11:00;100220.84;;;19.66;90.21
16694;BME280;39538;52.196;9.892;2022-08-19T03:13:26;100213.97;;;19.64;90.34
16694;BME280;39538;52.196;9.892;2022-08-19T03:15:53;100220.34;;;19.63;90.26
16694;BME280;39538;52.196;9.892;2022-08-19T03:18:19;100223.91;;;19.63;90.51
16694;BME280;39538;52.196;9.892;2022-08-19T03:20:48;100225.25;;;19.59;90.63
16694;BME280;39538;52.196;9.892;2022-08-19T03:23:16;100226.94;;;19.60;91.09
16694;BME280;39538;52.196;9.892;2022-08-19T03:25:45;100222.56;;;19.59;90.87
16694;BME280;39538;52.196;9.892;2022-08-19T03:28:14;100216.81;;;19.62;90.87
16694;BME280;39538;52.196;9.892;2022-08-19T03:30:42;100214.13;;;19.62;90.70
16694;BME280;39538;52.196;9.892;2022-08-19T03:33:10;100214.31;;;19.61;90.95
16694;BME280;39538;52.196;9.892;2022-08-19T03:35:37;100213.97;;;19.64;90.81
16694;BME280;39538;52.196;9.892;2022-08-19T03:38:03;100215.16;;;19.61;90.87
16694;BME280;39538;52.196;9.892;2022-08-19T03:40:32;100219.53;;;19.62;90.90
16694;BME280;39538;52.196;9.892;2022-08-19T03:43:00;100213.31;;;19.62;91.28
16694;BME280;39538;52.196;9.892;2022-08-19T03:45:26;100214.97;;;19.63;91.30
16694;BME280;39538;52.196;9.892;2022-08-19T03:47:53;100210.59;;;19.62;91.17
16694;BME280;39538;52.196;9.892;2022-08-19T03:50:19;100208.44;;;19.57;91.52
16694;BME280;39538;52.196;9.892;2022-08-19T03:52:48;100204.75;;;19.58;91.32
16694;BME280;39538;52.196;9.892;2022-08-19T03:55:15;100209.63;;;19.54;91.39
16694;BME280;39538;52.196;9.892;2022-08-19T03:57:43;100210.81;;;19.52;91.71
16694;BME280;39538;52.196;9.892;2022-08-19T04:00:11;100211.19;;;19.49;91.96
16694;BME280;39538;52.196;9.892;2022-08-19T04:02:38;100212.34;;;19.46;92.14
16694;BME280;39538;52.196;9.892;2022-08-19T04:05:06;100209.84;;;19.45;92.28
16694;BME280;39538;52.196;9.892;2022-08-19T04:07:33;100216.75;;;19.39;92.29
16694;BME280;39538;52.196;9.892;2022-08-19T04:09:59;100222.78;;;19.41;92.95
16694;BME280;39538;52.196;9.892;2022-08-19T04:12:26;100227.50;;;19.39;93.17
16694;BME280;39538;52.196;9.892;2022-08-19T04:14:54;100208.34;;;19.34;93.51
16694;BME280;39538;52.196;9.892;2022-08-19T04:17:20;100216.75;;;19.39;92.90
16694;BME280;39538;52.196;9.892;2022-08-19T04:19:47;100210.88;;;19.35;92.61
16694;BME280;39538;52.196;9.892;2022-08-19T04:22:13;100203.81;;;19.34;92.71
16694;BME280;39538;52.196;9.892;2022-08-19T04:24:40;100207.00;;;19.30;93.14
16694;BME280;39538;52.196;9.892;2022-08-19T04:27:06;100208.19;;;19.27;93.42
16694;BME280;39538;52.196;9.892;2022-08-19T04:29:33;100218.97;;;19.27;93.35
16694;BME280;39538;52.196;9.892;2022-08-19T04:32:02;100226.19;;;19.27;93.37
16694;BME280;39538;52.196;9.892;2022-08-19T04:34:29;100231.59;;;19.27;93.62
16694;BME280;39538;52.196;9.892;2022-08-19T04:36:57;100232.59;;;19.26;93.53
16694;BME280;39538;52.196;9.892;2022-08-19T04:39:26;100232.09;;;19.22;93.58
16694;BME280;39538;52.196;9.892;2022-08-19T04:42:15;100237.00;;;19.19;93.62
16694;BME280;39538;52.196;9.892;2022-08-19T04:44:59;100232.09;;;19.22;93.23
16694;BME280;39538;52.196;9.892;2022-08-19T04:47:27;100235.47;;;19.24;92.93
16694;BME280;39538;52.196;9.892;2022-08-19T04:49:53;100238.66;;;19.20;93.38
16694;BME280;39538;52.196;9.892;2022-08-19T04:52:20;100245.56;;;19.22;93.57
16694;BME280;39538;52.196;9.892;2022-08-19T04:54:46;100232.09;;;19.22;93.33
16694;BME280;39538;52.196;9.892;2022-08-19T04:57:13;100246.22;;;19.24;93.12
16694;BME280;39538;52.196;9.892;2022-08-19T04:59:40;100239.19;;;19.23;93.03
16694;BME280;39538;52.196;9.892;2022-08-19T05:02:08;100232.09;;;19.22;92.92
16694;BME280;39538;52.196;9.892;2022-08-19T05:04:37;100229.56;;;19.21;92.99
16694;BME280;39538;52.196;9.892;2022-08-19T05:07:04;100236.66;;;19.22;93.19
16694;BME280;39538;52.196;9.892;2022-08-19T05:09:30;100225.38;;;19.18;93.01
16694;BME280;39538;52.196;9.892;2022-08-19T05:11:57;100214.09;;;19.23;92.97
16694;BME280;39538;52.196;9.892;2022-08-19T05:14:23;100219.16;;;19.26;92.49
16694;BME280;39538;52.196;9.892;2022-08-19T05:16:50;100223.66;;;19.25;92.71
16694;BME280;39538;52.196;9.892;2022-08-19T05:19:16;100219.97;;;19.26;92.82
16694;BME280;39538;52.196;9.892;2022-08-19T05:22:02;100221.31;;;19.30;92.69
16694;BME280;39538;52.196;9.892;2022-08-19T05:24:46;100216.09;;;19.29;92.20
16694;BME280;39538;52.196;9.892;2022-08-19T05:27:12;100218.97;;;19.27;92.09
16694;BME280;39538;52.196;9.892;2022-08-19T05:29:39;100222.50;;;19.28;92.31
16694;BME280;39538;52.196;9.892;2022-08-19T05:32:06;100228.38;;;19.31;92.01
16694;BME280;39538;52.196;9.892;2022-08-19T05:34:34;100234.28;;;19.27;92.03
16694;BME280;39538;52.196;9.892;2022-08-19T05:37:03;100237.63;;;19.29;92.17
16694;BME280;39538;52.196;9.892;2022-08-19T05:39:31;100241.84;;;19.31;91.97
16694;BME280;39538;52.196;9.892;2022-08-19T05:42:00;100238.16;;;19.32;91.67
16694;BME280;39538;52.196;9.892;2022-08-19T05:44:28;100236.44;;;19.31;91.15
16694;BME280;39538;52.196;9.892;2022-08-19T05:46:56;100230.91;;;19.33;91.60
16694;BME280;39538;52.196;9.892;2022-08-19T05:49:23;100232.75;;;19.32;91.94
16694;BME280;39538;52.196;9.892;2022-08-19T05:51:50;100236.09;;;19.34;91.78
16694;BME280;39538;52.196;9.892;2022-08-19T05:54:19;100242.81;;;19.38;91.29
16694;BME280;39538;52.196;9.892;2022-08-19T05:56:45;100243.50;;;19.41;90.63
16694;BME280;39538;52.196;9.892;2022-08-19T05:59:14;100240.44;;;19.44;90.25
16694;BME280;39538;52.196;9.892;2022-08-19T06:01:43;100236.25;;;19.41;90.42
16694;BME280;39538;52.196;9.892;2022-08-19T06:04:11;100240.81;;;19.41;90.73
16694;BME280;39538;52.196;9.892;2022-08-19T06:06:39;100234.38;;;19.42;90.44
16694;BME280;39538;52.196;9.892;2022-08-19T06:09:07;100243.13;;;19.44;90.02
16694;BME280;39538;52.196;9.892;2022-08-19T06:11:38;100235.25;;;19.42;89.84
16694;BME280;39538;52.196;9.892;2022-08-19T06:14:08;100247.00;;;19.41;89.65
16694;BME280;39538;52.196;9.892;2022-08-19T06:16:36;100244.84;;;19.36;90.13
16694;BME280;39538;52.196;9.892;2022-08-19T06:19:06;100253.22;;;19.42;89.86
16694;BME280;39538;52.196;9.892;2022-08-19T06:21:33;100252.41;;;19.41;89.81
16694;BME280;39538;52.196;9.892;2022-08-19T06:24:03;100262.34;;;19.41;89.94
16694;BME280;39538;52.196;9.892;2022-08-19T06:26:30;100268.53;;;19.41;90.18
16694;BME280;39538;52.196;9.892;2022-08-19T06:28:58;100265.69;;;19.43;90.18
16694;BME280;39538;52.196;9.892;2022-08-19T06:31:27;100263.84;;;19.43;89.19
16694;BME280;39538;52.196;9.892;2022-08-19T06:33:53;100271.91;;;19.43;88.36
16694;BME280;39538;52.196;9.892;2022-08-19T06:36:23;100264.00;;;19.42;88.14
16694;BME280;39538;52.196;9.892;2022-08-19T06:38:52;100265.38;;;19.37;88.80
16694;BME280;39538;52.196;9.892;2022-08-19T06:41:18;100273.13;;;19.32;88.72
16694;BME280;39538;52.196;9.892;2022-08-19T06:43:45;100279.84;;;19.28;87.83
16694;BME280;39538;52.196;9.892;2022-08-19T06:46:15;100279.03;;;19.28;88.12
16694;BME280;39538;52.196;9.892;2022-08-19T06:48:42;100274.47;;;19.28;88.00
16694;BME280;39538;52.196;9.892;2022-08-19T06:51:09;100285.25;;;19.28;88.04
16694;BME280;39538;52.196;9.892;2022-08-19T06:53:35;100278.16;;;19.27;88.17
16694;BME280;39538;52.196;9.892;2022-08-19T06:56:02;100296.00;;;19.28;88.07
16694;BME280;39538;52.196;9.892;2022-08-19T06:58:29;100286.91;;;19.29;88.75
16694;BME280;39538;52.196;9.892;2022-08-19T07:00:58;100306.06;;;19.34;89.06
16694;BME280;39538;52.196;9.892;2022-08-19T07:03:28;100307.59;;;19.45;88.15
16694;BME280;39538;52.196;9.892;2022-08-19T07:05:55;100305.03;;;19.52;87.63
16694;BME280;39538;52.196;9.892;2022-08-19T07:08:22;100307.06;;;19.58;86.76
16694;BME280;39538;52.196;9.892;2022-08-19T07:10:49;100311.09;;;19.70;86.66
16694;BME280;39538;52.196;9.892;2022-08-19T07:13:16;100316.78;;;19.84;86.59
16694;BME280;39538;52.196;9.892;2022-08-19T07:15:42;100322.44;;;19.97;85.70
16694;BME280;39538;52.196;9.892;2022-08-19T07:18:11;100318.53;;;20.08;84.69
16694;BME280;39538;52.196;9.892;2022-08-19T07:20:39;100319.34;;;20.16;84.04
16694;BME280;39538;52.196;9.892;2022-08-19T07:23:06;100327.72;;;20.21;83.56
16694;BME280;39538;52.196;9.892;2022-08-19T07:25:33;100337.16;;;20.26;83.21
16694;BME280;39538;52.196;9.892;2022-08-19T07:28:02;100344.88;;;20.29;82.94
16694;BME280;39538;52.196;9.892;2022-08-19T07:30:29;100340.97;;;20.31;82.56
16694;BME280;39538;52.196;9.892;2022-08-19T07:32:56;100340.09;;;20.39;81.54
16694;BME280;39538;52.196;9.892;2022-08-19T07:35:23;100347.84;;;20.42;81.52
16694;BME280;39538;52.196;9.892;2022-08-19T07:37:51;100355.56;;;20.45;81.48
16694;BME280;39538;52.196;9.892;2022-08-19T07:40:18;100368.53;;;20.50;82.11
16694;BME280;39538;52.196;9.892;2022-08-19T07:42:44;100357.72;;;20.58;80.96
16694;BME280;39538;52.196;9.892;2022-08-19T07:45:10;100371.53;;;20.63;80.35
16694;BME280;39538;52.196;9.892;2022-08-19T07:47:37;100372.66;;;20.69;79.54
16694;BME280;39538;52.196;9.892;2022-08-19T07:50:08;100371.97;;;20.75;79.37
16694;BME280;39538;52.196;9.892;2022-08-19T07:52:36;100370.38;;;20.80;78.24
16694;BME280;39538;52.196;9.892;2022-08-19T07:55:08;100372.84;;;20.90;77.84
16694;BME280;39538;52.196;9.892;2022-08-19T07:57:35;100375.84;;;20.95;78.03
16694;BME280;39538;52.196;9.892;2022-08-19T08:00:03;100379.16;;;21.05;77.88
16694;BME280;39538;52.196;9.892;2022-08-19T08:02:30;100384.84;;;21.11;77.14
16694;BME280;39538;52.196;9.892;2022-08-19T08:04:56;100374.34;;;21.16;76.43
16694;BME280;39538;52.196;9.892;2022-08-19T08:07:40;100384.13;;;21.17;76.09
16694;BME280;39538;52.196;9.892;2022-08-19T08:10:25;100377.16;;;21.22;76.25
16694;BME280;39538;52.196;9.892;2022-08-19T08:12:53;100375.59;;;21.28;75.93
16694;BME280;39538;52.196;9.892;2022-08-19T08:15:20;100378.22;;;21.36;75.84
16694;BME280;39538;52.196;9.892;2022-08-19T08:17:47;100381.75;;;21.45;75.22
16694;BME280;39538;52.196;9.892;2022-08-19T08:20:14;100374.38;;;21.54;75.10
16694;BME280;39538;52.196;9.892;2022-08-19T08:22:43;100376.53;;;21.58;73.56
16694;BME280;39538;52.196;9.892;2022-08-19T08:25:29;100364.44;;;21.84;73.30
16694;BME280;39538;52.196;9.892;2022-08-19T08:27:56;100372.00;;;22.48;73.43
16694;BME280;39538;52.196;9.892;2022-08-19T08:30:26;100366.38;;;23.07;70.98
16694;BME280;39538;52.196;9.892;2022-08-19T08:32:53;100361.75;;;23.51;68.38
16694;BME280;39538;52.196;9.892;2022-08-19T08:35:22;100371.91;;;23.98;67.20
16694;BME280;39538;52.196;9.892;2022-08-19T08:37:52;100372.47;;;24.22;63.15
16694;BME280;39538;52.196;9.892;2022-08-19T08:40:22;100377.63;;;24.17;63.10
16694;BME280;39538;52.196;9.892;2022-08-19T08:42:55;100381.13;;;24.04;62.28
16694;BME280;39538;52.196;9.892;2022-08-19T08:45:27;100391.44;;;23.87;62.99
16694;BME280;39538;52.196;9.892;2022-08-19T08:47:58;100390.56;;;23.80;62.34
16694;BME280;39538;52.196;9.892;2022-08-19T08:50:32;100405.00;;;23.87;62.61
16694;BME280;39538;52.196;9.892;2022-08-19T08:53:02;100395.13;;;24.14;62.66
16694;BME280;39538;52.196;9.892;2022-08-19T08:55:31;100396.13;;;24.42;60.83
16694;BME280;39538;52.196;9.892;2022-08-19T08:58:02;100398.72;;;24.63;60.77
16694;BME280;39538;52.196;9.892;2022-08-19T09:00:36;100400.41;;;24.57;59.55
16694;BME280;39538;52.196;9.892;2022-08-19T09:03:19;100385.69;;;24.38;60.37
16694;BME280;39538;52.196;9.892;2022-08-19T09:05:55;100394.03;;;24.44;60.40
16694;BME280;39538;52.196;9.892;2022-08-19T09:08:29;100390.78;;;24.55;58.90
16694;BME280;39538;52.196;9.892;2022-08-19T09:10:59;100387.91;;;24.76;59.43
16694;BME280;39538;52.196;9.892;2022-08-19T09:16:49;100388.84;;;25.77;56.38
16694;BME280;39538;52.196;9.892;2022-08-19T09:26:25;100395.94;;;26.04;53.47
16694;BME280;39538;52.196;9.892;2022-08-19T09:28:52;100392.19;;;25.85;53.30
16694;BME280;39538;52.196;9.892;2022-08-19T09:31:22;100393.84;;;26.00;53.98
16694;BME280;39538;52.196;9.892;2022-08-19T09:33:59;100394.81;;;26.32;52.75
16694;BME280;39538;52.196;9.892;2022-08-19T09:36:40;100394.34;;;26.55;52.03
16694;BME280;39538;52.196;9.892;2022-08-19T09:39:08;100392.53;;;26.81;52.06
16694;BME280;39538;52.196;9.892;2022-08-19T09:41:35;100395.59;;;26.91;50.85
16694;BME280;39538;52.196;9.892;2022-08-19T09:44:02;100399.06;;;27.37;50.39
16694;BME280;39538;52.196;9.892;2022-08-19T09:46:29;100392.06;;;27.72;49.63
16694;BME280;39538;52.196;9.892;2022-08-19T09:48:59;100393.84;;;28.04;49.35
16694;BME280;39538;52.196;9.892;2022-08-19T09:51:26;100387.72;;;28.27;48.63
16694;BME280;39538;52.196;9.892;2022-08-19T09:53:59;100384.59;;;28.60;46.99
16694;BME280;39538;52.196;9.892;2022-08-19T09:56:26;100383.09;;;28.76;46.15
16694;BME280;39538;52.196;9.892;2022-08-19T09:58:53;100389.25;;;29.02;45.56
16694;BME280;39538;52.196;9.892;2022-08-19T10:01:21;100383.19;;;29.41;45.69
16694;BME280;39538;52.196;9.892;2022-08-19T10:03:50;100391.75;;;29.57;44.64
16694;BME280;39538;52.196;9.892;2022-08-19T10:06:20;100380.34;;;29.60;44.00
16694;BME280;39538;52.196;9.892;2022-08-19T10:08:49;100383.47;;;29.75;44.50
16694;BME280;39538;52.196;9.892;2022-08-19T10:11:48;100373.81;;;29.61;44.11
16694;BME280;39538;52.196;9.892;2022-08-19T10:14:15;100378.22;;;29.74;44.04
16694;BME280;39538;52.196;9.892;2022-08-19T10:16:42;100379.91;;;29.87;44.23
16694;BME280;39538;52.196;9.892;2022-08-19T10:19:09;100380.34;;;30.07;43.34
16694;BME280;39538;52.196;9.892;2022-08-19T10:21:36;100374.13;;;30.35;42.71
16694;BME280;39538;52.196;9.892;2022-08-19T10:24:04;100368.28;;;30.60;41.32
16694;BME280;39538;52.196;9.892;2022-08-19T10:26:33;100369.75;;;30.92;41.50
16694;BME280;39538;52.196;9.892;2022-08-19T10:29:01;100358.78;;;31.08;39.56
16694;BME280;39538;52.196;9.892;2022-08-19T10:31:32;100363.25;;;30.98;38.43
16694;BME280;39538;52.196;9.892;2022-08-19T10:34:00;100362.09;;;30.94;38.68
16694;BME280;39538;52.196;9.892;2022-08-19T10:36:28;100349.31;;;30.99;39.08
16694;BME280;39538;52.196;9.892;2022-08-19T10:38:58;100342.84;;;31.05;39.50
16694;BME280;39538;52.196;9.892;2022-08-19T10:41:28;100341.25;;;31.09;38.93
16694;BME280;39538;52.196;9.892;2022-08-19T10:43:57;100338.63;;;31.15;39.32
16694;BME280;39538;52.196;9.892;2022-08-19T10:46:26;100339.88;;;31.24;38.01
16694;BME280;39538;52.196;9.892;2022-08-19T10:48:54;100333.53;;;31.23;38.34
16694;BME280;39538;52.196;9.892;2022-08-19T10:51:21;100340.69;;;31.07;38.25
16694;BME280;39538;52.196;9.892;2022-08-19T10:54:06;100327.69;;;30.86;38.76
16694;BME280;39538;52.196;9.892;2022-08-19T10:56:33;100335.22;;;30.79;37.45
16694;BME280;39538;52.196;9.892;2022-08-19T10:59:19;100332.38;;;30.74;37.62
16694;BME280;39538;52.196;9.892;2022-08-19T11:01:47;100331.84;;;30.88;37.92
16694;BME280;39538;52.196;9.892;2022-08-19T11:04:14;100323.38;;;30.90;37.81
16694;BME280;39538;52.196;9.892;2022-08-19T11:06:43;100327.22;;;31.06;37.30
16694;BME280;39538;52.196;9.892;2022-08-19T11:09:12;100329.97;;;31.06;37.65
16694;BME280;39538;52.196;9.892;2022-08-19T11:11:38;100324.31;;;31.13;37.81
16694;BME280;39538;52.196;9.892;2022-08-19T11:14:06;100309.03;;;31.17;37.66
16694;BME280;39538;52.196;9.892;2022-08-19T11:16:32;100307.78;;;31.41;37.88
16694;BME280;39538;52.196;9.892;2022-08-19T11:18:59;100306.41;;;31.61;37.69
16694;BME280;39538;52.196;9.892;2022-08-19T11:21:29;100295.31;;;31.50;36.35
16694;BME280;39538;52.196;9.892;2022-08-19T11:23:58;100305.41;;;31.67;36.72
16694;BME280;39538;52.196;9.892;2022-08-19T11:26:29;100308.22;;;31.72;36.38
16694;BME280;39538;52.196;9.892;2022-08-19T11:28:57;100307.84;;;31.63;36.25
16694;BME280;39538;52.196;9.892;2022-08-19T11:31:25;100314.75;;;31.66;36.04
16694;BME280;39538;52.196;9.892;2022-08-19T11:33:52;100306.13;;;31.79;36.10
16694;BME280;39538;52.196;9.892;2022-08-19T11:36:20;100311.47;;;32.08;35.45
16694;BME280;39538;52.196;9.892;2022-08-19T11:38:47;100305.16;;;31.90;36.21
16694;BME280;39538;52.196;9.892;2022-08-19T11:41:15;100299.56;;;32.24;36.09
16694;BME280;39538;52.196;9.892;2022-08-19T11:43:44;100311.09;;;32.48;34.78
16694;BME280;39538;52.196;9.892;2022-08-19T11:46:12;100297.41;;;32.81;34.81
16694;BME280;39538;52.196;9.892;2022-08-19T11:48:40;100295.25;;;32.83;34.09
16694;BME280;39538;52.196;9.892;2022-08-19T11:51:08;100305.91;;;33.06;32.93
16694;BME280;39538;52.196;9.892;2022-08-19T11:53:36;100297.63;;;33.38;32.52
16694;BME280;39538;52.196;9.892;2022-08-19T11:56:04;100298.19;;;33.93;32.08
16694;BME280;39538;52.196;9.892;2022-08-19T11:58:32;100286.69;;;34.07;31.40
16694;BME280;39538;52.196;9.892;2022-08-19T12:01:00;100280.97;;;34.18;31.04
16694;BME280;39538;52.196;9.892;2022-08-19T12:03:27;100294.09;;;34.01;30.88
16694;BME280;39538;52.196;9.892;2022-08-19T12:05:53;100295.13;;;33.85;32.03
16694;BME280;39538;52.196;9.892;2022-08-19T12:08:20;100297.22;;;33.62;31.87
16694;BME280;39538;52.196;9.892;2022-08-19T12:10:46;100298.81;;;33.53;32.26
16694;BME280;39538;52.196;9.892;2022-08-19T12:13:13;100307.31;;;33.51;31.76
16694;BME280;39538;52.196;9.892;2022-08-19T12:15:46;100301.94;;;33.24;32.46
16694;BME280;39538;52.196;9.892;2022-08-19T12:18:14;100300.22;;;33.18;32.33
16694;BME280;39538;52.196;9.892;2022-08-19T12:20:42;100297.59;;;33.01;32.26
16694;BME280;39538;52.196;9.892;2022-08-19T12:23:09;100286.97;;;32.78;33.17
16694;BME280;39538;52.196;9.892;2022-08-19T12:25:37;100287.78;;;32.51;33.99
16694;BME280;39538;52.196;9.892;2022-08-19T12:28:03;100285.41;;;32.38;33.37
16694;BME280;39538;52.196;9.892;2022-08-19T12:30:30;100286.72;;;32.30;33.43
16694;BME280;39538;52.196;9.892;2022-08-19T12:32:56;100289.72;;;32.28;33.21
16694;BME280;39538;52.196;9.892;2022-08-19T12:35:24;100283.09;;;32.24;32.85
16694;BME280;39538;52.196;9.892;2022-08-19T12:37:50;100291.53;;;32.18;33.76
16694;BME280;39538;52.196;9.892;2022-08-19T12:40:17;100289.63;;;32.18;33.40
16694;BME280;39538;52.196;9.892;2022-08-19T12:42:44;100287.81;;;32.29;33.45
16694;BME280;39538;52.196;9.892;2022-08-19T12:45:13;100286.19;;;32.33;32.31
16694;BME280;39538;52.196;9.892;2022-08-19T12:47:39;100286.91;;;32.23;32.74
16694;BME280;39538;52.196;9.892;2022-08-19T12:50:06;100289.00;;;32.11;32.67
16694;BME280;39538;52.196;9.892;2022-08-19T12:52:36;100289.41;;;32.03;33.12
16694;BME280;39538;52.196;9.892;2022-08-19T12:55:04;100285.38;;;31.88;33.62
16694;BME280;39538;52.196;9.892;2022-08-19T12:57:34;100279.31;;;31.86;33.56
16694;BME280;39538;52.196;9.892;2022-08-19T13:00:04;100273.63;;;31.32;34.40
16694;BME280;39538;52.196;9.892;2022-08-19T13:02:35;100284.84;;;31.14;34.15
16694;BME280;39538;52.196;9.892;2022-08-19T13:05:03;100273.47;;;30.88;34.38
16694;BME280;39538;52.196;9.892;2022-08-19T13:07:31;100274.34;;;30.60;34.90